createdAt,value
2019-01-24T00:57:29.154Z,2.31
2019-01-24T00:58:30.015Z,2.07
2019-01-24T00:59:30.985Z,1.48
2019-01-24T01:00:31.953Z,1.16
2019-01-24T01:01:32.817Z,0.92
2019-01-24T01:02:33.712Z,0.75
2019-01-24T01:03:34.580Z,0.27
2019-01-24T01:04:35.439Z,0.04
2019-01-24T01:05:36.295Z,0.05
2019-01-24T01:06:37.159Z,-0.02
2019-01-24T01:07:38.058Z,-0.12
2019-01-24T01:08:38.925Z,-0.20
2019-01-24T01:09:39.793Z,-0.30
2019-01-24T01:10:40.656Z,-0.48
2019-01-24T01:11:41.521Z,-0.38
2019-01-24T01:12:42.421Z,-0.37
2019-01-24T01:13:43.281Z,-0.57
2019-01-24T01:14:44.141Z,-0.62
2019-01-24T01:15:45.001Z,-0.67
2019-01-24T01:16:45.873Z,-0.55
2019-01-24T01:17:46.777Z,-0.44
2019-01-24T01:18:47.698Z,-0.42
2019-01-24T01:19:48.577Z,-0.75
2019-01-24T01:20:49.439Z,-1.00
2019-01-24T01:21:50.305Z,-0.83
2019-01-24T01:22:51.246Z,-0.75
2019-01-24T01:23:52.087Z,-0.76
2019-01-24T01:24:52.959Z,-0.68
2019-01-24T01:25:53.817Z,-0.66
2019-01-24T01:26:54.675Z,-0.72
2019-01-24T01:27:55.587Z,-0.89
2019-01-24T01:28:56.456Z,-1.13
2019-01-24T01:29:57.321Z,-1.24
2019-01-24T01:30:58.180Z,-1.69
2019-01-24T01:31:59.143Z,-1.31
2019-01-24T01:33:00.241Z,-1.16
2019-01-24T01:34:01.117Z,-1.14
2019-01-24T01:35:01.973Z,-0.96
2019-01-24T01:36:02.928Z,-0.89
2019-01-24T01:37:03.897Z,-0.92
2019-01-24T01:38:04.801Z,-0.80
2019-01-24T01:39:05.869Z,-0.72
2019-01-24T01:40:10.027Z,-0.90
2019-01-24T01:41:11.084Z,-0.72
2019-01-24T01:42:11.941Z,-0.60
2019-01-24T01:43:12.937Z,-0.64
2019-01-24T01:44:13.800Z,-0.70
2019-01-24T01:45:19.149Z,-0.73
2019-01-24T01:46:20.013Z,-0.81
2019-01-24T01:47:20.877Z,-1.07
2019-01-24T01:48:21.780Z,-1.05
2019-01-24T01:49:22.639Z,-0.83
2019-01-24T01:50:23.509Z,-0.75
2019-01-24T01:51:24.377Z,-0.83
2019-01-24T01:52:25.239Z,-0.77
2019-01-24T01:53:26.143Z,-0.94
2019-01-24T01:54:26.997Z,-0.96
2019-01-24T01:55:27.858Z,-0.98
2019-01-24T01:56:28.789Z,-0.96
2019-01-24T01:57:29.657Z,-1.04
2019-01-24T01:58:30.651Z,-1.22
2019-01-24T01:59:31.527Z,-1.15
2019-01-24T02:00:32.393Z,-0.98
2019-01-24T02:01:33.253Z,-1.11
2019-01-24T02:02:34.113Z,-1.03
2019-01-24T02:03:35.003Z,-0.99
2019-01-24T02:04:35.881Z,-0.92
2019-01-24T02:05:36.737Z,-0.94
2019-01-24T02:06:37.613Z,-1.07
2019-01-24T02:07:38.477Z,-0.89
2019-01-24T02:08:39.376Z,-0.89
2019-01-24T02:09:46.885Z,-1.05
2019-01-24T02:10:47.803Z,-0.84
2019-01-24T02:11:48.733Z,-0.89
2019-01-24T02:12:49.610Z,-0.99
2019-01-24T02:13:50.511Z,-0.99
2019-01-24T02:14:51.362Z,-1.04
2019-01-24T02:15:52.231Z,-1.01
2019-01-24T02:16:53.091Z,-0.88
2019-01-24T02:17:53.942Z,-0.88
2019-01-24T02:18:54.833Z,-1.17
2019-01-24T02:19:55.701Z,-0.98
2019-01-24T02:20:56.560Z,-1.06
2019-01-24T02:21:57.537Z,-0.91
2019-01-24T02:22:58.388Z,-1.19
2019-01-24T02:23:59.283Z,-1.17
2019-01-24T02:25:00.524Z,-1.01
2019-01-24T02:26:01.380Z,-0.92
2019-01-24T02:27:02.328Z,-1.09
2019-01-24T02:28:03.191Z,-0.95
2019-01-24T02:29:04.190Z,-1.06
2019-01-24T02:30:09.470Z,-0.94
2019-01-24T02:31:10.338Z,-0.96
2019-01-24T02:32:11.189Z,-0.92
2019-01-24T02:33:12.056Z,-0.83
2019-01-24T02:34:13.064Z,-0.78
2019-01-24T02:35:13.928Z,-0.87
2019-01-24T02:36:14.807Z,-0.96
2019-01-24T02:37:15.740Z,-1.02
2019-01-24T02:38:16.709Z,-0.83
2019-01-24T02:39:17.616Z,-0.84
2019-01-24T02:40:18.463Z,-0.89
2019-01-24T02:41:19.324Z,-0.99
2019-01-24T02:42:20.188Z,-0.99
2019-01-24T02:43:21.051Z,-0.90
2019-01-24T02:44:22.072Z,-0.92
2019-01-24T02:45:23.182Z,-0.99
2019-01-24T02:46:24.014Z,-0.88
2019-01-24T02:47:24.986Z,-0.95
2019-01-24T02:48:25.849Z,-0.82
2019-01-24T02:49:26.738Z,-0.99
2019-01-24T02:50:27.611Z,-0.85
2019-01-24T02:51:28.516Z,-0.81
2019-01-24T02:52:29.367Z,-0.80
2019-01-24T02:53:30.471Z,-0.73
2019-01-24T02:54:31.324Z,-0.74
2019-01-24T02:55:32.190Z,-0.84
2019-01-24T02:56:33.079Z,-0.92
2019-01-24T02:57:33.946Z,-0.75
2019-01-24T02:58:34.804Z,-0.67
2019-01-24T02:59:35.662Z,-0.64
2019-01-24T03:00:36.517Z,-0.65
2019-01-24T03:01:37.411Z,-0.79
2019-01-24T03:02:38.276Z,-1.05
2019-01-24T03:03:39.235Z,-0.84
2019-01-24T03:04:40.190Z,-0.73
2019-01-24T03:05:41.164Z,-0.73
2019-01-24T03:06:42.135Z,-0.71
2019-01-24T03:07:42.993Z,-0.78
2019-01-24T03:08:43.846Z,-0.80
2019-01-24T03:09:44.823Z,-0.71
2019-01-24T03:10:45.756Z,-0.99
2019-01-24T03:11:46.749Z,-1.00
2019-01-24T03:12:47.828Z,-0.93
2019-01-24T03:13:48.750Z,-0.94
2019-01-24T03:14:49.622Z,-1.03
2019-01-24T03:15:50.476Z,-1.02
2019-01-24T03:16:51.393Z,-1.07
2019-01-24T03:17:52.348Z,-1.13
2019-01-24T03:18:53.214Z,-1.09
2019-01-24T03:19:54.087Z,-1.03
2019-01-24T03:20:54.940Z,-1.09
2019-01-24T03:21:55.940Z,-1.07
2019-01-24T03:22:56.822Z,-1.36
2019-01-24T03:23:57.760Z,-1.24
2019-01-24T03:24:58.728Z,-1.25
2019-01-24T03:25:59.583Z,-1.04
2019-01-24T03:27:00.754Z,-0.95
2019-01-24T03:28:01.612Z,-0.90
2019-01-24T03:29:02.461Z,-0.89
2019-01-24T03:30:06.737Z,-0.79
2019-01-24T03:31:07.584Z,-0.76
2019-01-24T03:32:08.479Z,-0.74
2019-01-24T03:33:09.370Z,-0.64
2019-01-24T03:34:10.195Z,-0.80
2019-01-24T03:35:13.868Z,-0.95
2019-01-24T03:36:14.832Z,-0.84
2019-01-24T03:37:15.837Z,-0.88
2019-01-24T03:38:16.760Z,-0.90
2019-01-24T03:39:17.730Z,-0.93
2019-01-24T03:40:18.600Z,-1.17
2019-01-24T03:41:19.436Z,-1.14
2019-01-24T03:42:20.331Z,-0.92
2019-01-24T03:43:21.302Z,-1.07
2019-01-24T03:44:22.158Z,-0.91
2019-01-24T03:45:23.019Z,-0.82
2019-01-24T03:46:23.879Z,-0.90
2019-01-24T03:47:24.830Z,-1.19
2019-01-24T03:48:25.759Z,-1.05
2019-01-24T03:49:26.817Z,-1.02
2019-01-24T03:50:29.330Z,-1.47
2019-01-24T03:51:30.280Z,-1.33
2019-01-24T03:52:31.203Z,-1.60
2019-01-24T03:53:32.051Z,-1.23
2019-01-24T03:54:32.902Z,-1.23
2019-01-24T03:55:33.830Z,-1.03
2019-01-24T03:56:34.744Z,-1.16
2019-01-24T03:57:35.591Z,-0.97
2019-01-24T03:58:36.444Z,-1.03
2019-01-24T03:59:37.309Z,-0.91
2019-01-24T04:00:38.166Z,-1.22
2019-01-24T04:01:39.057Z,-1.11
2019-01-24T04:02:39.926Z,-0.94
2019-01-24T04:03:40.784Z,-1.05
2019-01-24T04:04:41.870Z,-0.90
2019-01-24T04:05:44.633Z,-0.75
2019-01-24T04:06:45.556Z,-0.75
2019-01-24T04:07:46.418Z,-0.65
2019-01-24T04:08:47.277Z,-0.70
2019-01-24T04:09:48.233Z,-0.78
2019-01-24T04:10:49.094Z,-0.99
2019-01-24T04:11:50.002Z,-0.89
2019-01-24T04:12:50.858Z,-1.25
2019-01-24T04:13:51.780Z,-1.27
2019-01-24T04:14:52.748Z,-1.15
2019-01-24T04:15:53.600Z,-1.08
2019-01-24T04:16:54.488Z,-0.93
2019-01-24T04:17:55.371Z,-0.93
2019-01-24T04:19:04.872Z,-1.18
2019-01-24T04:20:09.154Z,-1.21
2019-01-24T04:21:10.016Z,-1.16
2019-01-24T04:22:10.900Z,-0.99
2019-01-24T04:23:11.842Z,-1.05
2019-01-24T04:24:12.782Z,-1.13
2019-01-24T04:25:13.960Z,-1.35
2019-01-24T04:26:14.822Z,-1.26
2019-01-24T04:27:15.698Z,-1.21
2019-01-24T04:28:16.556Z,-1.64
2019-01-24T04:29:17.447Z,-1.40
2019-01-24T04:30:22.131Z,-1.34
2019-01-24T04:31:23.088Z,-1.26
2019-01-24T04:32:23.962Z,-1.09
2019-01-24T04:33:24.853Z,-1.09
2019-01-24T04:34:25.850Z,-1.10
2019-01-24T04:35:26.788Z,-1.03
2019-01-24T04:36:27.661Z,-0.94
2019-01-24T04:37:28.540Z,-0.94
2019-01-24T04:38:29.397Z,-0.96
2019-01-24T04:39:30.536Z,-0.92
2019-01-24T04:40:31.404Z,-0.86
2019-01-24T04:41:32.266Z,-1.02
2019-01-24T04:42:33.121Z,-1.11
2019-01-24T04:43:33.984Z,-1.14
2019-01-24T04:44:34.880Z,-1.59
2019-01-24T04:45:37.342Z,-1.48
2019-01-24T04:46:38.308Z,-1.56
2019-01-24T04:47:41.159Z,-1.53
2019-01-24T04:48:42.116Z,-1.37
2019-01-24T04:49:43.111Z,-1.32
2019-01-24T04:50:43.988Z,-1.27
2019-01-24T04:51:44.871Z,-1.44
2019-01-24T04:52:45.814Z,-1.52
2019-01-24T04:53:46.676Z,-1.56
2019-01-24T04:54:47.571Z,-1.61
2019-01-24T04:55:48.441Z,-1.41
2019-01-24T04:56:50.921Z,-1.32
2019-01-24T04:57:51.869Z,-1.41
2019-01-24T04:58:52.810Z,-1.55
2019-01-24T04:59:53.810Z,-1.45
2019-01-24T05:00:54.676Z,-1.26
2019-01-24T05:01:55.528Z,-1.22
2019-01-24T05:02:56.439Z,-1.15
2019-01-24T05:03:57.348Z,-1.65
2019-01-24T05:04:58.249Z,-1.58
2019-01-24T05:05:59.106Z,-1.65
2019-01-24T05:07:00.131Z,-1.53
2019-01-24T05:08:01.199Z,-1.64
2019-01-24T05:09:04.778Z,-1.57
2019-01-24T05:10:08.901Z,-1.78
2019-01-24T05:11:09.984Z,-1.76
2019-01-24T05:12:10.860Z,-1.65
2019-01-24T05:13:11.716Z,-1.54
2019-01-24T05:14:12.578Z,-1.56
2019-01-24T05:15:13.531Z,-1.79
2019-01-24T05:16:14.401Z,-1.70
2019-01-24T05:17:15.375Z,-1.60
2019-01-24T05:18:16.242Z,-1.46
2019-01-24T05:19:17.224Z,-1.40
2019-01-24T05:20:18.127Z,-1.24
2019-01-24T05:21:18.980Z,-1.33
2019-01-24T05:22:19.854Z,-1.30
2019-01-24T05:23:20.815Z,-1.30
2019-01-24T05:24:21.818Z,-1.43
2019-01-24T05:25:22.717Z,-1.41
2019-01-24T05:26:23.575Z,-1.34
2019-01-24T05:27:24.443Z,-1.26
2019-01-24T05:28:25.298Z,-1.25
2019-01-24T05:29:26.160Z,-1.26
2019-01-24T05:30:27.466Z,-1.34
2019-01-24T05:31:28.322Z,-1.32
2019-01-24T05:32:29.198Z,-1.39
2019-01-24T05:33:30.275Z,-1.31
2019-01-24T05:34:31.252Z,-1.36
2019-01-24T05:35:34.855Z,-1.27
2019-01-24T05:36:34.930Z,-1.19
2019-01-24T05:37:35.905Z,-1.36
2019-01-24T05:38:36.752Z,-1.50
2019-01-24T05:39:37.616Z,-1.37
2019-01-24T05:40:38.503Z,-1.24
2019-01-24T05:41:39.468Z,-1.18
2019-01-24T05:42:40.349Z,-1.14
2019-01-24T05:43:41.294Z,-1.11
2019-01-24T05:44:42.113Z,-1.21
2019-01-24T05:45:43.090Z,-1.04
2019-01-24T05:46:43.953Z,-0.96
2019-01-24T05:47:44.881Z,-1.00
2019-01-24T05:48:45.890Z,-0.87
2019-01-24T05:49:46.846Z,-0.94
2019-01-24T05:50:48.004Z,-1.17
2019-01-24T05:51:48.942Z,-1.17
2019-01-24T05:52:49.805Z,-1.07
2019-01-24T05:53:50.865Z,-1.04
2019-01-24T05:54:51.754Z,-1.03
2019-01-24T05:55:52.666Z,-1.09
2019-01-24T05:56:53.514Z,-1.00
2019-01-24T05:57:54.370Z,-1.01
2019-01-24T05:58:55.323Z,-1.03
2019-01-24T05:59:56.318Z,-1.13
2019-01-24T06:00:59.300Z,-1.07
2019-01-24T06:02:00.311Z,-0.97
2019-01-24T06:03:08.613Z,-1.13
2019-01-24T06:04:09.465Z,-1.12
2019-01-24T06:05:19.800Z,-1.21
2019-01-24T06:06:20.812Z,-1.09
2019-01-24T06:07:23.082Z,-1.13
2019-01-24T06:08:24.065Z,-0.95
2019-01-24T06:09:24.954Z,-0.98
2019-01-24T06:10:25.892Z,-0.94
2019-01-24T06:11:26.886Z,-1.02
2019-01-24T06:12:27.751Z,-0.96
2019-01-24T06:13:28.608Z,-0.90
2019-01-24T06:14:29.459Z,-0.85
2019-01-24T06:15:30.566Z,-0.84
2019-01-24T06:16:31.549Z,-1.05
2019-01-24T06:17:32.406Z,-1.04
2019-01-24T06:18:33.268Z,-1.12
2019-01-24T06:19:34.125Z,-1.35
2019-01-24T06:20:34.992Z,-1.23
2019-01-24T06:21:35.995Z,-1.11
2019-01-24T06:22:36.861Z,-1.04
2019-01-24T06:23:37.821Z,-1.02
2019-01-24T06:24:38.790Z,-1.04
2019-01-24T06:25:39.787Z,-1.42
2019-01-24T06:26:40.822Z,-1.46
2019-01-24T06:27:41.820Z,-1.60
2019-01-24T06:28:42.684Z,-1.60
2019-01-24T06:29:43.549Z,-1.77
2019-01-24T06:30:44.425Z,-2.15
2019-01-24T06:31:45.300Z,-1.74
2019-01-24T06:32:46.164Z,-1.69
2019-01-24T06:33:47.022Z,-1.46
2019-01-24T06:34:47.888Z,-1.53
2019-01-24T06:35:49.094Z,-1.40
2019-01-24T06:36:49.951Z,-1.31
2019-01-24T06:37:50.868Z,-1.31
2019-01-24T06:38:51.833Z,-1.30
2019-01-24T06:39:52.700Z,-1.61
2019-01-24T06:40:53.558Z,-1.48
2019-01-24T06:41:54.420Z,-1.47
2019-01-24T06:42:57.848Z,-1.34
2019-01-24T06:43:58.694Z,-1.43
2019-01-24T06:44:59.558Z,-1.27
2019-01-24T06:46:00.568Z,-1.24
2019-01-24T06:47:01.448Z,-1.13
2019-01-24T06:48:02.350Z,-1.16
2019-01-24T06:49:03.976Z,-1.13
2019-01-24T06:50:08.674Z,-1.16
2019-01-24T06:51:09.537Z,-1.16
2019-01-24T06:52:10.564Z,-1.25
2019-01-24T06:53:11.467Z,-1.48
2019-01-24T06:54:12.343Z,-1.40
2019-01-24T06:55:24.784Z,-1.37
2019-01-24T06:56:25.654Z,-1.38
2019-01-24T06:57:26.510Z,-1.31
2019-01-24T06:58:27.428Z,-1.21
2019-01-24T06:59:28.290Z,-1.23
2019-01-24T07:00:29.144Z,-1.33
2019-01-24T07:01:30.002Z,-1.49
2019-01-24T07:02:30.965Z,-1.42
2019-01-24T07:03:31.872Z,-1.37
2019-01-24T07:04:32.725Z,-1.61
2019-01-24T07:05:33.579Z,-1.49
2019-01-24T07:06:34.433Z,-1.25
2019-01-24T07:07:35.300Z,-1.77
2019-01-24T07:08:36.204Z,-1.59
2019-01-24T07:09:37.073Z,-2.09
2019-01-24T07:10:37.919Z,-1.96
2019-01-24T07:11:38.778Z,-1.52
2019-01-24T07:12:39.738Z,-1.34
2019-01-24T07:13:40.639Z,-1.33
2019-01-24T07:14:41.494Z,-1.31
2019-01-24T07:15:42.350Z,-1.54
2019-01-24T07:16:43.202Z,-1.50
2019-01-24T07:17:44.075Z,-1.29
2019-01-24T07:18:45.090Z,-1.26
2019-01-24T07:19:45.960Z,-1.35
2019-01-24T07:20:47.024Z,-1.32
2019-01-24T07:21:47.896Z,-1.33
2019-01-24T07:22:48.761Z,-1.23
2019-01-24T07:23:49.648Z,-1.19
2019-01-24T07:24:50.520Z,-1.33
2019-01-24T07:25:51.389Z,-1.21
2019-01-24T07:26:52.261Z,-1.52
2019-01-24T07:27:53.126Z,-1.50
2019-01-24T07:28:54.054Z,-1.33
2019-01-24T07:29:54.925Z,-1.22
2019-01-24T07:30:55.798Z,-1.24
2019-01-24T07:31:56.663Z,-1.13
2019-01-24T07:32:57.522Z,-1.01
2019-01-24T07:33:58.412Z,-0.90
2019-01-24T07:34:59.279Z,-1.01
2019-01-24T07:36:02.352Z,-0.89
2019-01-24T07:37:03.017Z,-0.82
2019-01-24T07:38:03.869Z,-0.78
2019-01-24T07:39:05.971Z,-0.76
2019-01-24T07:40:11.858Z,-0.98
2019-01-24T07:41:12.724Z,-0.87
2019-01-24T07:42:13.600Z,-0.71
2019-01-24T07:43:15.733Z,-0.61
2019-01-24T07:44:16.870Z,-0.70
2019-01-24T07:45:21.536Z,-0.65
2019-01-24T07:46:22.394Z,-1.05
2019-01-24T07:47:23.253Z,-0.68
2019-01-24T07:48:24.111Z,-0.54
2019-01-24T07:49:25.007Z,-0.52
2019-01-24T07:50:25.870Z,-0.53
2019-01-24T07:51:26.730Z,-0.52
2019-01-24T07:52:27.600Z,-0.48
2019-01-24T07:53:28.512Z,-1.02
2019-01-24T07:54:29.371Z,-1.18
2019-01-24T07:55:30.353Z,-0.95
2019-01-24T07:56:31.214Z,-0.94
2019-01-24T07:57:32.074Z,-0.87
2019-01-24T07:58:32.984Z,-1.19
2019-01-24T07:59:33.842Z,-1.05
2019-01-24T08:00:34.706Z,-0.91
2019-01-24T08:01:35.570Z,-1.10
2019-01-24T08:02:36.427Z,-1.50
2019-01-24T08:03:37.323Z,-0.99
2019-01-24T08:04:38.183Z,-0.83
2019-01-24T08:05:39.041Z,-0.82
2019-01-24T08:06:39.923Z,-0.83
2019-01-24T08:07:40.790Z,-1.08
2019-01-24T08:08:41.654Z,-0.95
2019-01-24T08:09:42.516Z,-0.95
2019-01-24T08:10:43.980Z,-1.17
2019-01-24T08:11:44.939Z,-1.46
2019-01-24T08:12:45.808Z,-1.81
2019-01-24T08:13:46.713Z,-1.75
2019-01-24T08:14:47.588Z,-1.87
2019-01-24T08:15:48.440Z,-1.69
2019-01-24T08:16:49.296Z,-1.47
2019-01-24T08:17:50.202Z,-1.15
2019-01-24T08:18:51.058Z,-0.98
2019-01-24T08:19:51.923Z,-1.34
2019-01-24T08:20:52.790Z,-1.24
2019-01-24T08:21:53.665Z,-1.34
2019-01-24T08:22:54.536Z,-1.09
2019-01-24T08:23:55.418Z,-1.29
2019-01-24T08:24:56.276Z,-1.39
2019-01-24T08:25:57.140Z,-1.51
2019-01-24T08:26:58.000Z,-1.19
2019-01-24T08:27:58.924Z,-1.05
2019-01-24T08:28:59.856Z,-0.90
2019-01-24T08:30:00.924Z,-0.87
2019-01-24T08:31:01.798Z,-0.75
2019-01-24T08:32:02.660Z,-1.02
2019-01-24T08:33:03.528Z,-0.79
2019-01-24T08:34:04.449Z,-0.90
2019-01-24T08:35:07.111Z,-0.90
2019-01-24T08:36:07.970Z,-1.07
2019-01-24T08:37:08.845Z,-0.83
2019-01-24T08:38:09.704Z,-0.64
2019-01-24T08:39:10.586Z,-0.56
2019-01-24T08:40:17.121Z,-0.42
2019-01-24T08:41:17.975Z,-0.29
2019-01-24T08:42:20.706Z,-0.37
2019-01-24T08:43:21.580Z,-0.32
2019-01-24T08:44:22.479Z,-0.26
2019-01-24T08:45:23.348Z,-0.22
2019-01-24T08:46:24.210Z,-0.39
2019-01-24T08:47:25.075Z,-0.34
2019-01-24T08:48:25.940Z,-0.25
2019-01-24T08:49:26.832Z,-0.30
2019-01-24T08:50:27.701Z,-0.60
2019-01-24T08:51:28.552Z,-0.36
2019-01-24T08:52:29.428Z,-0.21
2019-01-24T08:53:30.364Z,-0.17
2019-01-24T08:54:31.260Z,-0.42
2019-01-24T08:55:34.318Z,-0.23
2019-01-24T08:56:35.187Z,-0.33
2019-01-24T08:57:36.041Z,-0.62
2019-01-24T08:58:36.903Z,-0.42
2019-01-24T08:59:37.793Z,-0.38
2019-01-24T09:00:38.655Z,-0.70
2019-01-24T09:01:39.518Z,-0.60
2019-01-24T09:02:40.387Z,-0.57
2019-01-24T09:03:41.243Z,-0.52
2019-01-24T09:04:42.148Z,-0.62
2019-01-24T09:05:43.006Z,-0.30
2019-01-24T09:06:43.861Z,-0.24
2019-01-24T09:07:44.714Z,-0.17
2019-01-24T09:08:45.571Z,-0.17
2019-01-24T09:09:46.467Z,-0.16
2019-01-24T09:10:47.348Z,-0.03
2019-01-24T09:11:48.209Z,-0.03
2019-01-24T09:12:49.063Z,-0.33
2019-01-24T09:13:49.932Z,-0.42
2019-01-24T09:14:50.927Z,-0.32
2019-01-24T09:15:51.796Z,-0.20
2019-01-24T09:16:52.650Z,-0.46
2019-01-24T09:17:53.503Z,-0.45
2019-01-24T09:18:54.360Z,-0.49
2019-01-24T09:19:55.235Z,-0.37
2019-01-24T09:20:56.928Z,-0.34
2019-01-24T09:21:58.154Z,-0.32
2019-01-24T09:22:59.009Z,-0.91
2019-01-24T09:23:59.925Z,-0.70
2019-01-24T09:25:00.874Z,-0.76
2019-01-24T09:26:01.734Z,-0.71
2019-01-24T09:27:02.589Z,-0.56
2019-01-24T09:28:03.453Z,-0.51
2019-01-24T09:29:04.352Z,-0.23
2019-01-24T09:30:14.283Z,-0.49
2019-01-24T09:31:15.144Z,-0.31
2019-01-24T09:32:16.038Z,-0.27
2019-01-24T09:33:16.892Z,-0.72
2019-01-24T09:34:17.792Z,-0.46
2019-01-24T09:35:18.656Z,-0.43
2019-01-24T09:36:19.521Z,-0.21
2019-01-24T09:37:20.400Z,-0.61
2019-01-24T09:38:21.253Z,-0.38
2019-01-24T09:39:22.158Z,-0.33
2019-01-24T09:40:23.018Z,-0.15
2019-01-24T09:41:23.878Z,-0.09
2019-01-24T09:42:24.740Z,-0.20
2019-01-24T09:43:25.602Z,-0.62
2019-01-24T09:44:26.470Z,-0.13
2019-01-24T09:45:27.838Z,-0.02
2019-01-24T09:46:28.791Z,0.06
2019-01-24T09:47:29.655Z,0.26
2019-01-24T09:48:30.629Z,0.27
2019-01-24T09:49:31.479Z,0.10
2019-01-24T09:50:32.339Z,-0.07
2019-01-24T09:51:33.233Z,-0.45
2019-01-24T09:52:34.132Z,-0.64
2019-01-24T09:53:35.038Z,-0.70
2019-01-24T09:54:35.898Z,-0.17
2019-01-24T09:55:36.760Z,-0.19
2019-01-24T09:56:37.614Z,-0.17
2019-01-24T09:57:38.467Z,-0.34
2019-01-24T09:58:39.390Z,-0.16
2019-01-24T09:59:40.247Z,-0.29
2019-01-24T10:00:41.111Z,0.01
2019-01-24T10:01:41.968Z,-0.11
2019-01-24T10:02:42.823Z,0.07
2019-01-24T10:03:43.719Z,0.00
2019-01-24T10:04:44.580Z,-0.31
2019-01-24T10:05:45.433Z,-0.36
2019-01-24T10:06:46.292Z,-0.12
2019-01-24T10:07:47.151Z,0.24
2019-01-24T10:08:48.051Z,0.38
2019-01-24T10:09:48.908Z,0.45
2019-01-24T10:10:49.782Z,0.50
2019-01-24T10:11:50.640Z,0.66
2019-01-24T10:12:52.403Z,0.69
2019-01-24T10:13:53.301Z,0.48
2019-01-24T10:14:54.157Z,0.57
2019-01-24T10:15:55.015Z,0.76
2019-01-24T10:16:55.871Z,0.83
2019-01-24T10:17:56.731Z,0.93
2019-01-24T10:18:57.911Z,0.97
2019-01-24T10:19:58.777Z,1.04
2019-01-24T10:20:59.649Z,1.05
2019-01-24T10:22:00.812Z,0.69
2019-01-24T10:23:01.678Z,0.71
2019-01-24T10:24:02.674Z,0.45
2019-01-24T10:25:10.102Z,0.85
2019-01-24T10:26:10.967Z,0.88
2019-01-24T10:27:11.843Z,0.91
2019-01-24T10:28:12.699Z,0.89
2019-01-24T10:29:13.595Z,1.01
2019-01-24T10:30:17.374Z,1.09
2019-01-24T10:31:18.234Z,1.12
2019-01-24T10:32:19.103Z,0.99
2019-01-24T10:33:19.975Z,0.46
2019-01-24T10:34:20.875Z,0.32
2019-01-24T10:35:21.842Z,0.70
2019-01-24T10:36:22.703Z,0.38
2019-01-24T10:37:23.575Z,0.61
2019-01-24T10:38:24.439Z,0.70
2019-01-24T10:39:25.360Z,0.87
2019-01-24T10:40:28.221Z,0.89
2019-01-24T10:41:29.085Z,0.76
2019-01-24T10:42:29.965Z,0.80
2019-01-24T10:43:30.939Z,1.09
2019-01-24T10:44:32.620Z,0.90
2019-01-24T10:45:33.713Z,1.04
2019-01-24T10:46:34.581Z,1.36
2019-01-24T10:47:35.434Z,1.53
2019-01-24T10:48:36.301Z,1.49
2019-01-24T10:49:37.203Z,1.54
2019-01-24T10:50:38.107Z,1.38
2019-01-24T10:51:38.982Z,1.86
2019-01-24T10:52:39.849Z,1.84
2019-01-24T10:53:40.712Z,1.88
2019-01-24T10:54:41.713Z,2.17
2019-01-24T10:55:42.606Z,2.37
2019-01-24T10:56:43.472Z,2.49
2019-01-24T10:57:44.536Z,2.46
2019-01-24T10:58:45.406Z,2.56
2019-01-24T10:59:46.303Z,2.26
2019-01-24T11:00:47.674Z,2.55
2019-01-24T11:01:48.546Z,2.12
2019-01-24T11:02:49.407Z,1.87
2019-01-24T11:03:50.322Z,2.03
2019-01-24T11:04:51.186Z,2.06
2019-01-24T11:05:52.060Z,2.19
2019-01-24T11:06:52.918Z,2.01
2019-01-24T11:07:53.782Z,2.20
2019-01-24T11:08:54.677Z,2.42
2019-01-24T11:09:55.547Z,2.33
2019-01-24T11:10:56.410Z,1.98
2019-01-24T11:11:57.280Z,2.34
2019-01-24T11:12:58.146Z,2.78
2019-01-24T11:13:59.022Z,2.90
2019-01-24T11:14:59.919Z,2.64
2019-01-24T11:16:00.955Z,2.82
2019-01-24T11:17:02.264Z,3.12
2019-01-24T11:18:04.152Z,3.44
2019-01-24T11:19:05.028Z,3.83
2019-01-24T11:20:09.291Z,3.48
2019-01-24T11:21:10.165Z,3.81
2019-01-24T11:22:11.066Z,3.64
2019-01-24T11:23:11.930Z,4.23
2019-01-24T11:24:12.789Z,4.41
2019-01-24T11:25:18.270Z,4.00
2019-01-24T11:26:19.119Z,4.22
2019-01-24T11:27:27.000Z,4.05
2019-01-24T11:28:29.775Z,4.20
2019-01-24T11:29:30.747Z,4.16
2019-01-24T11:30:32.713Z,3.71
2019-01-24T11:31:33.583Z,3.90
2019-01-24T11:32:34.490Z,4.67
2019-01-24T11:33:35.355Z,4.81
2019-01-24T11:34:36.221Z,4.12
2019-01-24T11:35:37.095Z,4.20
2019-01-24T11:36:37.962Z,5.05
2019-01-24T11:37:38.873Z,5.44
2019-01-24T11:38:39.740Z,5.05
2019-01-24T11:39:40.598Z,5.17
2019-01-24T11:40:41.459Z,5.25
2019-01-24T11:41:42.317Z,4.86
2019-01-24T11:42:43.309Z,5.07
2019-01-24T11:43:44.187Z,5.43
2019-01-24T11:44:45.059Z,5.54
2019-01-24T11:45:45.908Z,5.69
2019-01-24T11:46:46.765Z,5.10
2019-01-24T11:47:47.656Z,5.39
2019-01-24T11:48:48.514Z,5.64
2019-01-24T11:49:49.382Z,5.79
2019-01-24T11:50:51.194Z,5.98
2019-01-24T11:51:52.432Z,5.79
2019-01-24T11:52:53.346Z,5.98
2019-01-24T11:53:54.283Z,5.93
2019-01-24T11:54:55.155Z,5.80
2019-01-24T11:55:56.012Z,6.23
2019-01-24T11:56:56.869Z,6.26
2019-01-24T11:57:57.784Z,6.21
2019-01-24T11:58:58.659Z,6.70
2019-01-24T11:59:59.530Z,7.08
2019-01-24T12:01:00.658Z,7.18
2019-01-24T12:02:01.531Z,7.02
2019-01-24T12:03:03.434Z,6.37
2019-01-24T12:04:04.287Z,6.29
2019-01-24T12:05:08.458Z,6.67
2019-01-24T12:06:09.318Z,5.65
2019-01-24T12:07:10.172Z,6.54
2019-01-24T12:08:11.072Z,6.09
2019-01-24T12:09:11.927Z,6.27
2019-01-24T12:10:16.406Z,6.53
2019-01-24T12:11:17.260Z,6.62
2019-01-24T12:12:20.734Z,7.11
2019-01-24T12:13:24.661Z,7.42
2019-01-24T12:14:25.524Z,7.45
2019-01-24T12:15:28.286Z,6.59
2019-01-24T12:16:29.146Z,7.36
2019-01-24T12:17:30.016Z,7.11
2019-01-24T12:18:30.979Z,7.65
2019-01-24T12:19:31.859Z,7.74
2019-01-24T12:20:32.720Z,8.03
2019-01-24T12:21:33.575Z,7.34
2019-01-24T12:22:34.442Z,6.53
2019-01-24T12:23:35.325Z,7.15
2019-01-24T12:24:36.191Z,6.91
2019-01-24T12:25:37.056Z,7.33
2019-01-24T12:26:37.903Z,6.37
2019-01-24T12:27:38.760Z,6.63
2019-01-24T12:28:39.663Z,6.69
2019-01-24T12:29:40.534Z,6.98
2019-01-24T12:30:41.380Z,7.49
2019-01-24T12:31:42.242Z,7.82
2019-01-24T12:32:43.105Z,7.98
2019-01-24T12:33:44.021Z,7.98
2019-01-24T12:34:44.885Z,8.08
2019-01-24T12:35:45.744Z,7.64
2019-01-24T12:36:46.603Z,7.56
2019-01-24T12:37:47.506Z,7.86
2019-01-24T12:38:48.398Z,8.11
2019-01-24T12:39:49.251Z,8.20
2019-01-24T12:40:50.106Z,8.36
2019-01-24T12:41:50.965Z,8.35
2019-01-24T12:42:51.859Z,8.34
2019-01-24T12:43:52.766Z,7.93
2019-01-24T12:44:53.630Z,7.44
2019-01-24T12:45:54.507Z,7.86
2019-01-24T12:46:55.551Z,7.99
2019-01-24T12:47:56.425Z,7.87
2019-01-24T12:48:57.339Z,7.18
2019-01-24T12:49:58.196Z,6.42
2019-01-24T12:50:59.053Z,7.23
2019-01-24T12:51:59.912Z,7.49
2019-01-24T12:53:00.954Z,7.44
2019-01-24T12:54:01.872Z,6.73
2019-01-24T12:55:03.651Z,6.53
2019-01-24T12:56:04.509Z,6.18
2019-01-24T12:57:05.365Z,6.21
2019-01-24T12:58:06.463Z,6.43
2019-01-24T12:59:07.328Z,6.48
2019-01-24T13:00:14.753Z,5.95
2019-01-24T13:01:26.311Z,6.06
2019-01-24T13:02:30.121Z,5.98
2019-01-24T13:03:34.225Z,5.96
2019-01-24T13:04:35.090Z,5.85
2019-01-24T13:05:35.946Z,5.77
2019-01-24T13:06:36.808Z,5.66
2019-01-24T13:07:37.664Z,5.15
2019-01-24T13:08:38.577Z,5.16
2019-01-24T13:09:39.451Z,5.34
2019-01-24T13:10:40.317Z,4.58
2019-01-24T13:11:41.176Z,4.68
2019-01-24T13:12:42.033Z,4.26
2019-01-24T13:13:42.939Z,3.61
2019-01-24T13:14:43.805Z,3.90
2019-01-24T13:15:44.696Z,4.17
2019-01-24T13:16:45.567Z,4.63
2019-01-24T13:17:46.419Z,4.22
2019-01-24T13:18:47.339Z,4.30
2019-01-24T13:19:48.193Z,4.14
2019-01-24T13:20:49.051Z,3.83
2019-01-24T13:21:49.908Z,4.11
2019-01-24T13:22:50.771Z,4.31
2019-01-24T13:23:51.701Z,4.23
2019-01-24T13:24:52.587Z,4.45
2019-01-24T13:25:53.447Z,4.49
2019-01-24T13:26:54.311Z,4.08
2019-01-24T13:27:55.178Z,4.14
2019-01-24T13:28:56.081Z,3.63
2019-01-24T13:29:56.959Z,3.97
2019-01-24T13:30:57.832Z,4.32
2019-01-24T13:31:58.725Z,4.41
2019-01-24T13:32:59.810Z,4.00
2019-01-24T13:34:00.899Z,4.30
2019-01-24T13:35:01.781Z,4.43
2019-01-24T13:36:02.635Z,4.34
2019-01-24T13:37:03.537Z,4.04
2019-01-24T13:38:04.384Z,4.01
2019-01-24T13:39:09.616Z,3.88
2019-01-24T13:40:13.471Z,3.79
2019-01-24T13:41:14.339Z,3.91
2019-01-24T13:42:15.221Z,3.94
2019-01-24T13:43:16.083Z,3.99
2019-01-24T13:44:16.987Z,3.30
2019-01-24T13:45:20.451Z,3.65
2019-01-24T13:46:21.324Z,3.60
2019-01-24T13:47:22.181Z,2.95
2019-01-24T13:48:23.099Z,2.86
2019-01-24T13:49:23.958Z,2.28
2019-01-24T13:50:24.857Z,2.70
2019-01-24T13:51:25.715Z,2.52
2019-01-24T13:52:26.560Z,2.70
2019-01-24T13:53:27.437Z,2.87
2019-01-24T13:54:28.307Z,3.01
2019-01-24T13:55:29.206Z,3.10
2019-01-24T13:56:30.081Z,3.22
2019-01-24T13:57:31.045Z,3.35
2019-01-24T13:58:31.896Z,3.18
2019-01-24T13:59:32.872Z,2.83
2019-01-24T14:00:34.655Z,2.93
2019-01-24T14:01:35.620Z,2.61
2019-01-24T14:02:38.287Z,2.61
2019-01-24T14:03:42.254Z,2.83
2019-01-24T14:04:42.842Z,3.04
2019-01-24T14:05:43.728Z,3.00
2019-01-24T14:06:44.589Z,3.15
2019-01-24T14:07:45.442Z,3.19
2019-01-24T14:08:46.304Z,3.19
2019-01-24T14:09:47.194Z,3.22
2019-01-24T14:10:48.111Z,3.16
2019-01-24T14:11:48.966Z,3.06
2019-01-24T14:12:49.829Z,2.88
2019-01-24T14:13:50.691Z,2.78